Time;durP1;ratioP1;P1;durP2;ratioP2;P2;SDS_P1;SDS_P2;PMS_P1;PMS_P2;Temp;Humidity;BMP_temperature;BMP_pressure;BME280_temperature;BME280_humidity;BME280_pressure;Samples;Min_cycle;Max_cycle;Signal;HPM_P1;HPM_P2
2023/11/03 00:02:21;;;;;;;;;;;;;;;17.51;47.52;100157.09;5095953;28;1054;-46
2023/11/03 00:04:47;;;;;;;;;;;;;;;16.67;48.26;100156.34;5076502;28;1917;-42
2023/11/03 00:07:14;;;;;;;;;;;;;;;16.50;47.17;100155.97;5085313;28;1431;-47
2023/11/03 00:09:39;;;;;;;;;;;;;;;16.41;46.45;100158.50;5089169;28;979;-46
2023/11/03 00:12:06;;;;;;;;;;;;;;;17.64;47.29;100158.28;5086151;28;1135;-44
2023/11/03 00:14:32;;;;;;;;;;;;;;;16.75;47.90;100155.72;5090802;28;2562;-46
2023/11/03 00:16:57;;;;;;;;;;;;;;;16.52;47.01;100146.34;5096409;28;1118;-43
2023/11/03 00:19:29;;;;;;;;;;;;;;;16.39;46.55;100133.28;5088609;28;1033;-45
2023/11/03 00:21:55;;;;;;;;;;;;;;;16.33;45.78;100135.25;5091109;28;1141;-45
2023/11/03 00:24:20;;;;;;;;;;;;;;;16.21;45.45;100126.56;5094320;28;1913;-46
2023/11/03 00:26:47;;;;;;;;;;;;;;;17.15;46.97;100121.81;5095106;28;1053;-47
2023/11/03 00:29:16;;;;;;;;;;;;;;;16.52;47.17;100115.31;5062781;28;1198;-44
2023/11/03 00:31:45;;;;;;;;;;;;;;;16.28;46.79;100113.34;5078022;28;1131;-43
2023/11/03 00:34:10;;;;;;;;;;;;;;;16.16;46.14;100107.41;5087486;28;1161;-43
2023/11/03 00:36:37;;;;;;;;;;;;;;;16.06;45.49;100092.69;5085402;28;1003;-43
2023/11/03 00:39:04;;;;;;;;;;;;;;;17.27;46.49;100089.25;5096353;28;1058;-44
2023/11/03 00:41:29;;;;;;;;;;;;;;;16.60;48.00;100084.50;5080098;28;1069;-45
2023/11/03 00:43:55;;;;;;;;;;;;;;;16.38;47.15;100080.34;5075660;28;1884;-44
2023/11/03 00:46:21;;;;;;;;;;;;;;;16.25;46.54;100086.47;5076034;28;1975;-42
2023/11/03 00:48:46;;;;;;;;;;;;;;;16.10;46.21;100083.88;5076155;28;1071;-43
2023/11/03 00:51:12;;;;;;;;;;;;;;;17.06;46.80;100078.50;5089501;28;934;-47
2023/11/03 00:53:37;;;;;;;;;;;;;;;16.70;47.84;100084.38;5066563;28;1259;-46
2023/11/03 00:56:06;;;;;;;;;;;;;;;16.33;47.15;100077.63;5093281;28;1026;-43
2023/11/03 00:58:31;;;;;;;;;;;;;;;17.24;47.10;100063.16;5085539;28;1031;-42
2023/11/03 01:00:57;;;;;;;;;;;;;;;16.57;47.41;100058.44;5081659;28;1080;-43
2023/11/03 01:03:25;;;;;;;;;;;;;;;16.33;46.83;100066.66;5086753;28;1005;-43
2023/11/03 01:05:51;;;;;;;;;;;;;;;16.31;46.87;100077.09;5089321;28;1968;-46
2023/11/03 01:08:17;;;;;;;;;;;;;;;17.17;47.57;100075.66;5077791;28;1070;-45
2023/11/03 01:10:43;;;;;;;;;;;;;;;16.58;47.90;100081.25;5082483;28;1002;-45
2023/11/03 01:13:10;;;;;;;;;;;;;;;16.39;47.08;100081.13;5087595;28;2428;-46
2023/11/03 01:15:38;;;;;;;;;;;;;;;16.63;47.04;100072.94;5092364;28;1046;-44
2023/11/03 01:18:06;;;;;;;;;;;;;;;17.04;48.01;100078.00;5047549;28;1032;-47
2023/11/03 01:20:32;;;;;;;;;;;;;;;16.49;47.69;100074.72;5078855;28;1117;-42
2023/11/03 01:22:58;;;;;;;;;;;;;;;16.41;46.82;100071.50;5095731;28;990;-45
2023/11/03 01:25:24;;;;;;;;;;;;;;;17.37;47.23;100086.34;5068208;28;1969;-45
2023/11/03 01:27:50;;;;;;;;;;;;;;;16.69;47.68;100093.75;5067746;28;1123;-44
2023/11/03 01:30:17;;;;;;;;;;;;;;;17.97;47.25;100087.72;5091699;28;1160;-44
2023/11/03 01:32:46;;;;;;;;;;;;;;;17.46;48.90;100097.53;5075434;28;1007;-46
2023/11/03 01:35:12;;;;;;;;;;;;;;;16.86;48.62;100093.28;5093414;28;1115;-47
2023/11/03 01:37:38;;;;;;;;;;;;;;;16.73;47.45;100089.31;5083094;28;895;-46
2023/11/03 01:40:08;;;;;;;;;;;;;;;16.60;46.70;100087.25;5057738;28;1086;-44
2023/11/03 01:42:36;;;;;;;;;;;;;;;16.47;46.01;100085.19;5068798;28;1418;-44
2023/11/03 01:45:02;;;;;;;;;;;;;;;16.84;46.92;100084.50;5076652;28;2313;-43
2023/11/03 01:47:29;;;;;;;;;;;;;;;17.02;48.08;100082.13;5069075;28;1624;-43
2023/11/03 01:49:54;;;;;;;;;;;;;;;16.61;47.87;100094.38;5086296;28;1002;-42
2023/11/03 01:52:21;;;;;;;;;;;;;;;16.45;46.65;100092.88;5065198;28;1058;-47
2023/11/03 01:54:47;;;;;;;;;;;;;;;16.48;46.34;100095.03;5080073;28;1040;-44
2023/11/03 01:57:12;;;;;;;;;;;;;;;17.45;47.48;100088.44;5095598;28;1065;-45
2023/11/03 01:59:37;;;;;;;;;;;;;;;16.73;47.72;100089.31;5077189;28;1271;-42
2023/11/03 02:02:04;;;;;;;;;;;;;;;16.56;47.04;100077.94;5074540;28;1518;-43
2023/11/03 02:04:30;;;;;;;;;;;;;;;16.45;46.02;100082.72;5059707;28;1914;-44
2023/11/03 02:06:55;;;;;;;;;;;;;;;17.06;46.96;100077.69;5095271;28;983;-46
2023/11/03 02:09:21;;;;;;;;;;;;;;;16.82;47.82;100069.44;5090417;28;1122;-41
2023/11/03 02:11:48;;;;;;;;;;;;;;;16.41;47.46;100062.44;5077161;28;1050;-44
2023/11/03 02:14:14;;;;;;;;;;;;;;;17.33;47.40;100065.25;5075551;28;1884;-43
2023/11/03 02:16:39;;;;;;;;;;;;;;;16.78;48.18;100071.94;5098700;28;1058;-44
2023/11/03 02:19:06;;;;;;;;;;;;;;;16.50;47.48;100081.88;5062526;28;1103;-43
2023/11/03 02:21:41;;;;;;;;;;;;;;;16.41;46.58;100081.66;5078767;28;1020;-43
2023/11/03 02:24:08;;;;;;;;;;;;;;;16.79;47.00;100091.97;5084716;28;1966;-43
2023/11/03 02:26:34;;;;;;;;;;;;;;;17.06;47.97;100100.47;5081731;28;816;-43
2023/11/03 02:29:00;;;;;;;;;;;;;;;16.63;47.56;100099.56;5078818;28;1138;-43
2023/11/03 02:31:25;;;;;;;;;;;;;;;16.44;46.84;100094.81;5073741;28;1115;-47
2023/11/03 02:33:51;;;;;;;;;;;;;;;16.44;46.41;100105.81;5079809;28;1118;-44
2023/11/03 02:36:17;;;;;;;;;;;;;;;17.28;47.49;100110.94;5098552;28;1054;-45
2023/11/03 02:38:43;;;;;;;;;;;;;;;16.56;48.06;100110.88;5096421;28;1185;-43
2023/11/03 02:41:08;;;;;;;;;;;;;;;16.71;47.76;100109.91;5080443;28;1096;-44
2023/11/03 02:43:34;;;;;;;;;;;;;;;16.89;47.88;100127.59;5078424;28;2383;-44
2023/11/03 02:45:59;;;;;;;;;;;;;;;16.53;47.51;100133.44;5090903;28;1903;-43
2023/11/03 02:48:25;;;;;;;;;;;;;;;16.37;46.63;100132.75;5097725;28;1049;-43
2023/11/03 02:50:51;;;;;;;;;;;;;;;16.23;46.14;100138.88;5074096;28;860;-44
2023/11/03 02:53:18;;;;;;;;;;;;;;;16.97;46.68;100129.72;5066683;28;1650;-44
2023/11/03 02:55:43;;;;;;;;;;;;;;;16.67;47.33;100119.84;5085075;28;1010;-48
2023/11/03 02:58:09;;;;;;;;;;;;;;;16.39;46.97;100108.59;5083976;28;1111;-43
2023/11/03 03:00:35;;;;;;;;;;;;;;;16.58;46.99;100114.16;5098022;28;964;-44
2023/11/03 03:03:01;;;;;;;;;;;;;;;17.28;47.38;100115.63;5090626;28;1034;-47
2023/11/03 03:05:27;;;;;;;;;;;;;;;16.62;47.72;100125.38;5090602;28;1972;-46
2023/11/03 03:07:52;;;;;;;;;;;;;;;16.36;47.01;100122.88;5084178;28;1189;-48
2023/11/03 03:10:18;;;;;;;;;;;;;;;16.37;46.00;100128.06;5080053;28;1397;-46
2023/11/03 03:12:47;;;;;;;;;;;;;;;16.22;45.71;100126.28;5091411;28;1130;-46
2023/11/03 03:15:12;;;;;;;;;;;;;;;17.41;46.77;100117.63;5090747;28;2352;-44
2023/11/03 03:17:38;;;;;;;;;;;;;;;16.58;47.48;100109.50;5084580;28;999;-46
2023/11/03 03:20:03;;;;;;;;;;;;;;;16.43;46.64;100107.69;5097467;28;1014;-44
2023/11/03 03:22:29;;;;;;;;;;;;;;;16.29;46.00;100108.69;5097329;28;1038;-47
2023/11/03 03:24:54;;;;;;;;;;;;;;;17.48;46.67;100105.47;5097535;28;1910;-47
2023/11/03 03:27:20;;;;;;;;;;;;;;;16.69;47.96;100103.88;5073057;28;1203;-47
2023/11/03 03:29:45;;;;;;;;;;;;;;;16.51;47.63;100113.66;5090158;28;1019;-43
2023/11/03 03:32:11;;;;;;;;;;;;;;;17.38;47.56;100118.22;5091542;28;1022;-45
2023/11/03 03:34:37;;;;;;;;;;;;;;;16.72;48.01;100114.31;5071866;28;1106;-47
2023/11/03 03:37:02;;;;;;;;;;;;;;;16.55;47.08;100114.72;5077851;28;1178;-48
2023/11/03 03:39:27;;;;;;;;;;;;;;;16.41;46.42;100112.69;5084863;28;884;-44
2023/11/03 03:41:53;;;;;;;;;;;;;;;17.14;47.67;100104.53;5059196;28;1620;-46
2023/11/03 03:44:18;;;;;;;;;;;;;;;16.67;47.70;100123.41;5090119;28;2438;-49
2023/11/03 03:46:44;;;;;;;;;;;;;;;16.51;46.86;100121.91;5077710;28;1166;-46
2023/11/03 03:49:09;;;;;;;;;;;;;;;17.52;47.12;100123.00;5076558;28;1090;-45
2023/11/03 03:51:35;;;;;;;;;;;;;;;16.83;47.99;100136.97;5082303;28;1124;-44
2023/11/03 03:54:00;;;;;;;;;;;;;;;16.53;47.17;100130.69;5096696;28;1042;-45
2023/11/03 03:56:26;;;;;;;;;;;;;;;16.34;46.52;100131.41;5091433;28;1078;-43
2023/11/03 03:58:55;;;;;;;;;;;;;;;16.34;45.88;100141.53;5076838;28;1075;-42
2023/11/03 04:01:23;;;;;;;;;;;;;;;17.34;47.35;100139.16;5076217;28;1171;-43
2023/11/03 04:03:49;;;;;;;;;;;;;;;16.63;47.76;100136.06;5089674;28;1178;-43
2023/11/03 04:06:14;;;;;;;;;;;;;;;16.48;46.98;100136.22;5090280;28;1978;-42
2023/11/03 04:08:40;;;;;;;;;;;;;;;17.62;47.28;100136.59;5076885;28;1420;-45
2023/11/03 04:11:05;;;;;;;;;;;;;;;16.79;47.94;100144.16;5090135;28;1202;-41
2023/11/03 04:13:31;;;;;;;;;;;;;;;16.53;47.29;100138.91;5088366;28;2440;-42
2023/11/03 04:15:57;;;;;;;;;;;;;;;16.45;46.36;100125.81;5083302;28;1030;-45
2023/11/03 04:18:22;;;;;;;;;;;;;;;16.41;45.62;100123.66;5083304;28;986;-44
2023/11/03 04:20:48;;;;;;;;;;;;;;;16.21;45.51;100113.66;5082436;28;1035;-40
2023/11/03 04:23:13;;;;;;;;;;;;;;;16.12;45.28;100111.81;5096722;28;1167;-44
2023/11/03 04:25:39;;;;;;;;;;;;;;;17.18;46.93;100111.06;5095248;28;1910;-45
2023/11/03 04:28:05;;;;;;;;;;;;;;;16.54;47.66;100108.44;5096338;28;1058;-47
2023/11/03 04:30:32;;;;;;;;;;;;;;;16.37;46.97;100103.38;5090506;28;1198;-46
2023/11/03 04:32:58;;;;;;;;;;;;;;;16.76;47.35;100098.91;5075586;28;1030;-47
2023/11/03 04:35:23;;;;;;;;;;;;;;;16.67;47.64;100090.47;5080944;28;1097;-45
2023/11/03 04:37:49;;;;;;;;;;;;;;;16.31;47.76;100082.56;5093307;28;1070;-43
2023/11/03 04:40:15;;;;;;;;;;;;;;;16.24;46.98;100088.41;5090057;28;1105;-42
2023/11/03 04:42:41;;;;;;;;;;;;;;;17.48;46.95;100086.22;5075882;28;999;-45
2023/11/03 04:45:08;;;;;;;;;;;;;;;16.83;48.29;100084.78;5081280;28;1988;-43
2023/11/03 04:47:33;;;;;;;;;;;;;;;16.50;47.97;100081.88;5083879;28;1054;-43
2023/11/03 04:49:59;;;;;;;;;;;;;;;18.11;44.99;100083.06;5090946;28;1143;-45
2023/11/03 04:52:24;;;;;;;;;;;;;;;18.06;47.59;100068.56;5087934;28;1002;-42
2023/11/03 04:54:50;;;;;;;;;;;;;;;17.37;48.07;100067.09;5076655;28;1130;-41
2023/11/03 04:57:17;;;;;;;;;;;;;;;17.15;47.29;100069.63;5085167;28;1030;-42
2023/11/03 04:59:43;;;;;;;;;;;;;;;17.04;46.43;100067.00;5094017;28;1062;-44
2023/11/03 05:02:08;;;;;;;;;;;;;;;17.12;46.57;100072.97;5086669;28;1146;-48
2023/11/03 05:04:34;;;;;;;;;;;;;;;17.67;47.76;100073.28;5077151;28;1992;-48
2023/11/03 05:07:00;;;;;;;;;;;;;;;17.13;48.00;100086.41;5076151;28;990;-46
2023/11/03 05:09:26;;;;;;;;;;;;;;;17.02;46.75;100085.69;5081785;28;1166;-43
2023/11/03 05:11:51;;;;;;;;;;;;;;;16.86;46.15;100085.03;5083702;28;1086;-44
2023/11/03 05:14:17;;;;;;;;;;;;;;;16.90;46.02;100088.03;5082758;28;2257;-48
2023/11/03 05:16:42;;;;;;;;;;;;;;;17.46;47.68;100094.78;5075698;28;1134;-44
2023/11/03 05:19:08;;;;;;;;;;;;;;;17.06;47.03;100089.50;5081354;28;1150;-47
2023/11/03 05:21:35;;;;;;;;;;;;;;;17.31;47.39;100093.03;5083699;28;1102;-45
2023/11/03 05:24:02;;;;;;;;;;;;;;;17.61;47.85;100090.97;5089234;28;1233;-48
2023/11/03 05:26:27;;;;;;;;;;;;;;;17.21;47.18;100088.50;5079589;28;1977;-45
2023/11/03 05:28:55;;;;;;;;;;;;;;;17.12;46.43;100083.94;5076656;28;1054;-47
2023/11/03 05:31:21;;;;;;;;;;;;;;;16.90;46.12;100061.41;5075588;28;1043;-44
2023/11/03 05:33:46;;;;;;;;;;;;;;;17.87;45.43;100049.34;5080720;28;1087;-46
2023/11/03 05:36:12;;;;;;;;;;;;;;;17.33;46.84;100040.53;5083685;28;1077;-47
2023/11/03 05:38:38;;;;;;;;;;;;;;;17.08;47.62;100035.09;5094333;28;1102;-45
2023/11/03 05:41:04;;;;;;;;;;;;;;;16.99;48.25;100014.88;5083317;28;1122;-45
2023/11/03 05:43:33;;;;;;;;;;;;;;;16.77;48.97;100018.13;5075573;28;1847;-45
2023/11/03 05:45:59;;;;;;;;;;;;;;;16.70;49.22;100029.47;5089203;28;1971;-47
2023/11/03 05:48:25;;;;;;;;;;;;;;;16.60;49.61;100054.31;5079986;28;1094;-45
2023/11/03 05:50:51;;;;;;;;;;;;;;;16.49;50.06;100050.84;5092381;28;1166;-44
2023/11/03 05:53:16;;;;;;;;;;;;;;;16.42;50.26;100050.38;5092451;28;1068;-43
2023/11/03 05:55:42;;;;;;;;;;;;;;;16.31;50.76;100066.09;5088491;28;1280;-42
2023/11/03 05:58:08;;;;;;;;;;;;;;;16.25;50.81;100064.53;5095739;28;1061;-40
2023/11/03 06:00:34;;;;;;;;;;;;;;;16.99;49.23;100058.81;5094971;28;1248;-41
2023/11/03 06:03:00;;;;;;;;;;;;;;;17.23;48.59;100045.03;5086538;28;1102;-45
2023/11/03 06:05:25;;;;;;;;;;;;;;;16.79;49.82;100053.53;5099001;28;1967;-44
2023/11/03 06:07:51;;;;;;;;;;;;;;;16.54;50.50;100059.03;5091310;28;1054;-44
2023/11/03 06:10:17;;;;;;;;;;;;;;;16.42;51.17;100058.59;5092088;28;1099;-44
2023/11/03 06:12:42;;;;;;;;;;;;;;;16.30;51.21;100061.75;5086716;28;1014;-41
2023/11/03 06:15:08;;;;;;;;;;;;;;;16.99;49.88;100064.31;5097352;28;2803;-45
2023/11/03 06:17:34;;;;;;;;;;;;;;;17.27;49.20;100057.06;5087168;28;1074;-44
2023/11/03 06:19:59;;;;;;;;;;;;;;;16.80;50.42;100049.69;5097630;28;1017;-44
2023/11/03 06:22:25;;;;;;;;;;;;;;;16.58;51.00;100042.81;5089747;28;1166;-41
2023/11/03 06:24:50;;;;;;;;;;;;;;;16.45;51.50;100038.00;5098888;28;1893;-44
2023/11/03 06:27:16;;;;;;;;;;;;;;;17.07;50.28;100062.88;5081889;28;1177;-43
2023/11/03 06:29:41;;;;;;;;;;;;;;;16.99;50.38;100067.06;5078665;28;1252;-42
2023/11/03 06:32:07;;;;;;;;;;;;;;;16.66;51.31;100072.38;5088494;28;1074;-46
2023/11/03 06:34:33;;;;;;;;;;;;;;;16.46;51.77;100089.03;5082979;28;1233;-44
2023/11/03 06:36:58;;;;;;;;;;;;;;;16.34;51.71;100082.00;5088266;28;1233;-46
2023/11/03 06:39:24;;;;;;;;;;;;;;;17.55;49.25;100076.47;5091424;28;1034;-43
2023/11/03 06:41:49;;;;;;;;;;;;;;;17.07;50.36;100088.38;5098703;28;1177;-42
2023/11/03 06:44:15;;;;;;;;;;;;;;;16.68;51.54;100097.59;5086867;28;1827;-45
2023/11/03 06:46:41;;;;;;;;;;;;;;;16.50;51.89;100101.88;5086613;28;1114;-46
2023/11/03 06:49:07;;;;;;;;;;;;;;;16.44;51.77;100097.56;5096941;28;1021;-47
2023/11/03 06:51:33;;;;;;;;;;;;;;;16.30;52.03;100096.56;5085854;28;1111;-44
2023/11/03 06:53:58;;;;;;;;;;;;;;;17.08;50.72;100095.53;5084478;28;1300;-41
2023/11/03 06:56:25;;;;;;;;;;;;;;;17.17;50.58;100092.13;5084745;28;1082;-46
2023/11/03 06:58:52;;;;;;;;;;;;;;;16.72;51.68;100092.34;5096916;28;1133;-44
2023/11/03 07:01:17;;;;;;;;;;;;;;;16.56;52.36;100088.94;5078084;28;1019;-42
2023/11/03 07:03:43;;;;;;;;;;;;;;;16.39;52.47;100081.94;5091669;28;1035;-43
2023/11/03 07:06:09;;;;;;;;;;;;;;;17.31;50.82;100071.06;5098035;28;1960;-46
2023/11/03 07:08:34;;;;;;;;;;;;;;;17.21;50.89;100049.22;5091682;28;1058;-44
2023/11/03 07:11:00;;;;;;;;;;;;;;;16.78;51.92;100028.03;5083502;28;1256;-42
2023/11/03 07:13:28;;;;;;;;;;;;;;;16.60;52.25;100024.91;5087043;28;2408;-46
2023/11/03 07:15:54;;;;;;;;;;;;;;;16.45;52.39;100021.53;5086047;28;1003;-40
2023/11/03 07:18:21;;;;;;;;;;;;;;;16.36;52.88;100021.38;5098141;28;979;-42
2023/11/03 07:20:47;;;;;;;;;;;;;;;16.33;52.86;100028.25;5084391;28;1125;-44
2023/11/03 07:23:13;;;;;;;;;;;;;;;17.58;50.38;100025.59;5097946;28;1010;-46
2023/11/03 07:25:38;;;;;;;;;;;;;;;16.90;52.04;100033.09;5090879;28;1902;-43
2023/11/03 07:28:04;;;;;;;;;;;;;;;16.63;52.59;100042.72;5079645;28;991;-41
2023/11/03 07:30:29;;;;;;;;;;;;;;;16.45;53.15;100038.00;5091347;28;1058;-41
2023/11/03 07:32:55;;;;;;;;;;;;;;;16.32;53.21;100040.31;5089953;28;1047;-41
2023/11/03 07:35:21;;;;;;;;;;;;;;;16.81;52.27;100030.19;5097515;28;1050;-40
2023/11/03 07:37:46;;;;;;;;;;;;;;;17.24;51.35;100034.88;5086279;28;1272;-43
2023/11/03 07:40:14;;;;;;;;;;;;;;;16.71;52.69;100041.28;5087977;28;1241;-42
2023/11/03 07:42:40;;;;;;;;;;;;;;;16.50;53.15;100044.25;5097427;28;1125;-40
2023/11/03 07:45:06;;;;;;;;;;;;;;;16.43;53.23;100041.03;5079001;28;2542;-41
2023/11/03 07:47:32;;;;;;;;;;;;;;;17.43;51.22;100034.88;5077191;28;991;-45
2023/11/03 07:49:58;;;;;;;;;;;;;;;16.83;52.53;100032.63;5077477;28;1123;-43
2023/11/03 07:52:24;;;;;;;;;;;;;;;16.60;53.16;100029.59;5080801;28;907;-41
2023/11/03 07:54:49;;;;;;;;;;;;;;;16.44;53.07;100020.72;5076763;28;1019;-44
2023/11/03 07:57:16;;;;;;;;;;;;;;;16.46;53.61;100026.72;5076991;28;1117;-43
2023/11/03 07:59:42;;;;;;;;;;;;;;;17.56;50.80;100005.84;5076743;28;1043;-40
2023/11/03 08:02:07;;;;;;;;;;;;;;;16.91;52.49;100001.81;5077005;28;1097;-41
2023/11/03 08:04:33;;;;;;;;;;;;;;;16.59;53.33;100000.50;5078851;28;1898;-43
2023/11/03 08:06:59;;;;;;;;;;;;;;;16.48;53.28;100004.47;5081183;28;1280;-39
2023/11/03 08:09:27;;;;;;;;;;;;;;;16.37;53.42;99996.38;5083248;28;1201;-44
2023/11/03 08:11:53;;;;;;;;;;;;;;;17.34;52.09;99998.19;5081445;28;1517;-42
2023/11/03 08:14:19;;;;;;;;;;;;;;;17.02;52.67;100000.56;5090220;28;2416;-46
2023/11/03 08:16:45;;;;;;;;;;;;;;;16.70;53.42;99985.53;5087941;28;1002;-43
2023/11/03 08:19:12;;;;;;;;;;;;;;;16.51;53.83;99979.19;5086081;28;1095;-45
2023/11/03 08:21:42;;;;;;;;;;;;;;;16.40;53.79;99987.56;5090169;28;1087;-40
2023/11/03 08:24:11;;;;;;;;;;;;;;;17.30;52.61;99975.19;5064850;28;1023;-44
2023/11/03 08:26:37;;;;;;;;;;;;;;;17.24;52.72;99960.69;5076638;28;1917;-45
2023/11/03 08:29:03;;;;;;;;;;;;;;;16.81;53.66;99966.22;5090593;28;840;-41
2023/11/03 08:31:29;;;;;;;;;;;;;;;16.60;54.17;99960.97;5096348;28;994;-42
2023/11/03 08:33:55;;;;;;;;;;;;;;;16.51;54.14;99958.06;5090003;28;1041;-43
2023/11/03 08:36:20;;;;;;;;;;;;;;;16.43;54.08;99961.47;5089689;28;1129;-44
2023/11/03 08:38:47;;;;;;;;;;;;;;;17.64;52.52;99946.59;5083127;28;1077;-43
2023/11/03 08:41:12;;;;;;;;;;;;;;;17.04;53.56;99934.34;5093934;28;991;-42
2023/11/03 08:43:38;;;;;;;;;;;;;;;16.75;54.25;99922.34;5076233;28;2403;-43
2023/11/03 08:46:04;;;;;;;;;;;;;;;16.61;54.32;99921.44;5080352;28;1912;-45
2023/11/03 08:48:29;;;;;;;;;;;;;;;16.53;54.36;99916.63;5086229;28;1362;-43
2023/11/03 08:50:55;;;;;;;;;;;;;;;16.73;54.75;99904.53;5079361;28;1206;-43
2023/11/03 08:53:24;;;;;;;;;;;;;;;17.50;53.10;99899.81;5085930;28;1326;-44
2023/11/03 08:55:50;;;;;;;;;;;;;;;16.93;54.15;99901.53;5080246;28;1201;-39
2023/11/03 08:58:16;;;;;;;;;;;;;;;16.69;54.94;99903.50;5084312;28;1229;-43
2023/11/03 09:00:44;;;;;;;;;;;;;;;16.53;54.87;99913.88;5080466;28;1210;-45
2023/11/03 09:03:10;;;;;;;;;;;;;;;16.43;54.88;99921.09;5081741;28;1301;-45
2023/11/03 09:05:36;;;;;;;;;;;;;;;16.36;54.83;99917.09;5082424;28;1909;-41
2023/11/03 09:08:02;;;;;;;;;;;;;;;16.47;55.06;99904.88;5096569;28;1023;-43
2023/11/03 09:10:29;;;;;;;;;;;;;;;17.62;53.69;99900.97;5095496;28;1002;-42
2023/11/03 09:12:54;;;;;;;;;;;;;;;16.92;54.99;99910.06;5086925;28;2359;-39
2023/11/03 09:15:20;;;;;;;;;;;;;;;16.71;55.24;99898.53;5077884;28;1070;-44
2023/11/03 09:17:46;;;;;;;;;;;;;;;16.51;55.28;99894.13;5088510;28;990;-41
2023/11/03 09:20:14;;;;;;;;;;;;;;;16.94;55.41;99894.09;5075922;28;1027;-39
2023/11/03 09:22:40;;;;;;;;;;;;;;;17.18;54.58;99898.69;5084040;28;1045;-42
2023/11/03 09:25:07;;;;;;;;;;;;;;;16.73;55.36;99891.66;5094908;28;1984;-45
2023/11/03 09:27:33;;;;;;;;;;;;;;;16.60;55.38;99898.66;5096172;28;1169;-41
2023/11/03 09:29:59;;;;;;;;;;;;;;;16.96;55.43;99889.16;5091779;28;897;-40
2023/11/03 09:32:24;;;;;;;;;;;;;;;17.34;54.42;99888.28;5096110;28;1030;-44
2023/11/03 09:34:50;;;;;;;;;;;;;;;16.88;55.18;99871.41;5095851;28;1078;-40
2023/11/03 09:37:15;;;;;;;;;;;;;;;16.69;55.26;99852.19;5087911;28;1090;-42
2023/11/03 09:39:42;;;;;;;;;;;;;;;16.71;55.73;99844.44;5089312;28;1185;-43
2023/11/03 09:42:08;;;;;;;;;;;;;;;17.51;54.20;99838.25;5093845;28;892;-43
2023/11/03 09:44:34;;;;;;;;;;;;;;;16.97;55.52;99843.25;5064579;28;1981;-41
2023/11/03 09:47:01;;;;;;;;;;;;;;;16.75;55.35;99840.00;5087781;28;1138;-41
2023/11/03 09:49:27;;;;;;;;;;;;;;;16.63;55.20;99847.84;5078402;28;1058;-39
2023/11/03 09:51:52;;;;;;;;;;;;;;;16.50;55.50;99829.41;5080174;28;1241;-42
2023/11/03 09:54:18;;;;;;;;;;;;;;;17.21;55.14;99838.47;5065777;28;1227;-43
2023/11/03 09:56:43;;;;;;;;;;;;;;;17.14;55.20;99834.47;5062235;28;1339;-44
2023/11/03 09:59:09;;;;;;;;;;;;;;;16.79;55.65;99825.66;5060411;28;1229;-44
2023/11/03 10:01:37;;;;;;;;;;;;;;;16.64;55.58;99849.50;5077833;28;1325;-46
2023/11/03 10:04:03;;;;;;;;;;;;;;;16.49;55.45;99842.28;5075971;28;996;-41
2023/11/03 10:06:28;;;;;;;;;;;;;;;17.60;54.52;99845.50;5081883;28;1988;-46
2023/11/03 10:08:54;;;;;;;;;;;;;;;17.30;55.34;99849.59;5096045;28;1089;-47
2023/11/03 10:11:20;;;;;;;;;;;;;;;16.90;55.52;99840.91;5077110;28;1212;-46
2023/11/03 10:13:45;;;;;;;;;;;;;;;16.68;55.60;99831.31;5088323;28;2442;-40
2023/11/03 10:16:11;;;;;;;;;;;;;;;16.57;55.52;99818.84;5089127;28;1047;-43
2023/11/03 10:18:39;;;;;;;;;;;;;;;16.49;55.30;99814.03;5095257;28;1069;-43
2023/11/03 10:21:08;;;;;;;;;;;;;;;16.37;55.62;99834.50;5081854;28;1125;-43
2023/11/03 10:23:37;;;;;;;;;;;;;;;17.57;54.93;99823.28;5093737;28;1037;-44
2023/11/03 10:26:03;;;;;;;;;;;;;;;16.97;56.07;99819.38;5075020;28;1905;-43
2023/11/03 10:28:31;;;;;;;;;;;;;;;16.72;55.92;99824.13;5088442;28;1095;-47
2023/11/03 10:30:57;;;;;;;;;;;;;;;16.57;55.75;99819.66;5061076;28;1258;-39
2023/11/03 10:33:24;;;;;;;;;;;;;;;16.42;55.63;99804.25;5088884;28;1011;-43
2023/11/03 10:35:51;;;;;;;;;;;;;;;17.49;55.29;99796.50;5093135;28;1090;-45
2023/11/03 10:38:18;;;;;;;;;;;;;;;16.91;56.14;99787.63;5078961;28;1026;-41
2023/11/03 10:40:44;;;;;;;;;;;;;;;16.69;56.04;99777.22;5080940;28;1027;-40
2023/11/03 10:43:09;;;;;;;;;;;;;;;16.54;55.95;99772.81;5078628;28;2316;-43
2023/11/03 10:45:36;;;;;;;;;;;;;;;16.41;55.78;99764.19;5073525;28;1985;-40
2023/11/03 10:48:09;;;;;;;;;;;;;;;16.33;55.52;99767.63;5095863;28;1030;-43
2023/11/03 10:50:35;;;;;;;;;;;;;;;16.32;55.65;99757.75;5098445;28;1077;-41
2023/11/03 10:53:09;;;;;;;;;;;;;;;17.32;55.58;99770.44;5097298;28;1118;-46
2023/11/03 10:55:39;;;;;;;;;;;;;;;16.80;56.22;99759.47;5083244;28;1189;-42
2023/11/03 10:58:07;;;;;;;;;;;;;;;16.60;56.10;99757.88;5063945;28;1218;-40
2023/11/03 11:00:42;;;;;;;;;;;;;;;16.42;56.13;99757.59;5082041;28;1237;-44
2023/11/03 11:03:14;;;;;;;;;;;;;;;17.58;55.29;99754.25;5073956;28;1261;-40
2023/11/03 11:05:59;;;;;;;;;;;;;;;16.96;56.20;99757.34;5083133;28;1917;-45
2023/11/03 11:08:26;;;;;;;;;;;;;;;16.71;56.31;99756.59;5088391;28;1659;-43
2023/11/03 11:10:51;;;;;;;;;;;;;;;16.55;56.13;99746.97;5077016;28;1248;-42
2023/11/03 11:13:20;;;;;;;;;;;;;;;16.45;55.93;99747.13;5090899;28;1879;-44
2023/11/03 11:16:08;;;;;;;;;;;;;;;16.70;56.65;99737.69;5098070;28;1494;-45
2023/11/03 11:18:43;;;;;;;;;;;;;;;17.28;55.77;99722.69;5083777;28;888;-44
2023/11/03 11:21:10;;;;;;;;;;;;;;;16.74;56.60;99722.25;5086386;28;1035;-46
2023/11/03 11:23:36;;;;;;;;;;;;;;;16.59;56.22;99718.66;5064717;28;998;-44
2023/11/03 11:26:02;;;;;;;;;;;;;;;16.50;55.88;99714.94;5079976;28;1901;-42
2023/11/03 11:28:39;;;;;;;;;;;;;;;16.39;55.73;99708.78;5082329;28;1046;-42
2023/11/03 11:31:27;;;;;;;;;;;;;;;16.34;56.36;99708.91;5097232;28;969;-43
2023/11/03 11:34:02;;;;;;;;;;;;;;;17.64;55.51;99716.47;5093206;28;1130;-41
2023/11/03 11:36:28;;;;;;;;;;;;;;;16.99;56.46;99710.03;5066442;28;1335;-43
2023/11/03 11:38:54;;;;;;;;;;;;;;;16.71;56.38;99718.16;5095773;28;1269;-40
2023/11/03 11:41:20;;;;;;;;;;;;;;;16.55;56.18;99711.28;5092900;28;1026;-47
2023/11/03 11:43:45;;;;;;;;;;;;;;;16.61;56.93;99710.13;5083605;28;1919;-47
2023/11/03 11:46:12;;;;;;;;;;;;;;;17.58;55.57;99712.22;5085321;28;1917;-42
2023/11/03 11:48:37;;;;;;;;;;;;;;;16.94;56.60;99715.59;5086373;28;1111;-47
2023/11/03 11:51:06;;;;;;;;;;;;;;;16.72;56.55;99703.34;5084916;28;1253;-42
2023/11/03 11:53:33;;;;;;;;;;;;;;;16.61;56.21;99704.63;5073124;28;1222;-44
2023/11/03 11:56:00;;;;;;;;;;;;;;;16.46;56.24;99700.19;5089798;28;1126;-43
2023/11/03 11:58:27;;;;;;;;;;;;;;;16.40;55.69;99702.19;5077754;28;1050;-43
2023/11/03 12:00:52;;;;;;;;;;;;;;;16.36;55.71;99695.69;5066494;28;1253;-44
2023/11/03 12:03:18;;;;;;;;;;;;;;;16.62;56.77;99703.53;5082641;28;1331;-45
2023/11/03 12:05:44;;;;;;;;;;;;;;;17.57;55.88;99700.41;5067977;28;1910;-45
2023/11/03 12:08:09;;;;;;;;;;;;;;;16.91;56.86;99707.97;5091340;28;1621;-41
2023/11/03 12:10:35;;;;;;;;;;;;;;;16.67;56.66;99697.13;5097093;28;1050;-45
2023/11/03 12:13:01;;;;;;;;;;;;;;;16.52;56.23;99687.19;5096294;28;2289;-44
2023/11/03 12:15:26;;;;;;;;;;;;;;;16.63;57.04;99694.16;5097167;28;1054;-45
2023/11/03 12:17:52;;;;;;;;;;;;;;;17.65;55.59;99690.63;5093047;28;1094;-44
2023/11/03 12:20:18;;;;;;;;;;;;;;;17.03;56.58;99680.84;5097295;28;1106;-47
2023/11/03 12:22:45;;;;;;;;;;;;;;;16.76;56.39;99676.91;5083493;28;1014;-45
2023/11/03 12:25:10;;;;;;;;;;;;;;;16.60;56.18;99678.28;5065326;28;1910;-42
2023/11/03 12:27:37;;;;;;;;;;;;;;;16.50;56.15;99678.47;5096651;28;978;-44
2023/11/03 12:30:03;;;;;;;;;;;;;;;16.74;57.10;99670.91;5088522;28;1057;-44
2023/11/03 12:32:30;;;;;;;;;;;;;;;17.31;56.29;99677.31;5088305;28;1053;-47
2023/11/03 12:34:56;;;;;;;;;;;;;;;16.81;56.78;99670.50;5077737;28;1132;-42
2023/11/03 12:37:22;;;;;;;;;;;;;;;16.65;56.52;99667.22;5095375;28;1018;-43
2023/11/03 12:39:54;;;;;;;;;;;;;;;16.52;56.05;99666.09;5083258;28;1126;-42
2023/11/03 12:42:22;;;;;;;;;;;;;;;16.44;56.41;99666.75;5095928;28;835;-43
2023/11/03 12:45:00;;;;;;;;;;;;;;;17.64;55.92;99667.00;5083147;28;2674;-45
2023/11/03 12:47:35;;;;;;;;;;;;;;;17.07;56.66;99662.66;5096473;28;1169;-47